sensor_id;sensor_type;location;lat;lon;timestamp;pressure;altitude;pressure_sealevel;temperature;humidity
72395;BME280;60384;48.152;11.614;2024-03-23T00:56:04;94990.50;;;14.03;44.60
72395;BME280;60384;48.152;11.614;2024-03-23T00:59:06;94973.44;;;13.86;44.20
72395;BME280;60384;48.152;11.614;2024-03-23T01:02:07;95009.31;;;14.15;44.62
72395;BME280;60384;48.152;11.614;2024-03-23T01:05:10;94967.63;;;13.89;44.45
72395;BME280;60384;48.152;11.614;2024-03-23T01:08:13;94997.66;;;14.09;44.79
72395;BME280;60384;48.152;11.614;2024-03-23T01:11:35;94899.72;;;13.42;44.91
72395;BME280;60384;48.152;11.614;2024-03-23T01:15:11;94574.91;;;11.58;44.46
72395;BME280;60384;48.152;11.614;2024-03-23T01:22:33;94606.56;;;11.73;44.31
72395;BME280;60384;48.152;11.614;2024-03-23T01:34:20;94742.25;;;12.85;44.26
72395;BME280;60384;48.152;11.614;2024-03-23T01:37:55;94734.97;;;12.74;44.25
72395;BME280;60384;48.152;11.614;2024-03-23T01:41:31;94688.94;;;12.42;44.33
72395;BME280;60384;48.152;11.614;2024-03-23T01:49:14;94982.81;;;14.25;44.37
72395;BME280;60384;48.152;11.614;2024-03-23T01:52:39;94973.34;;;14.22;44.33
72395;BME280;60384;48.152;11.614;2024-03-23T01:56:52;94650.03;;;12.16;44.49
72395;BME280;60384;48.152;11.614;2024-03-23T02:00:17;94723.63;;;12.79;44.39
72395;BME280;60384;48.152;11.614;2024-03-23T02:03:44;94929.44;;;14.12;44.51
72395;BME280;60384;48.152;11.614;2024-03-23T02:11:28;94782.53;;;13.02;44.32
72395;BME280;60384;48.152;11.614;2024-03-23T02:14:40;94703.47;;;12.65;44.42
72395;BME280;60384;48.152;11.614;2024-03-23T02:17:54;94932.22;;;14.05;44.64
72395;BME280;60384;48.152;11.614;2024-03-23T02:21:05;94903.41;;;13.89;44.81
72395;BME280;60384;48.152;11.614;2024-03-23T02:28:22;94780.53;;;13.16;44.88
72395;BME280;60384;48.152;11.614;2024-03-23T02:31:41;94742.84;;;12.88;44.83
72395;BME280;60384;48.152;11.614;2024-03-23T02:34:43;94849.94;;;13.41;44.79
72395;BME280;60384;48.152;11.614;2024-03-23T02:37:46;94927.50;;;13.89;44.83
72395;BME280;60384;48.152;11.614;2024-03-23T02:40:53;94911.88;;;13.86;44.87
72395;BME280;60384;48.152;11.614;2024-03-23T02:43:58;94915.81;;;13.83;44.90
72395;BME280;60384;48.152;11.614;2024-03-23T02:47:02;94910.91;;;13.80;44.95
72395;BME280;60384;48.152;11.614;2024-03-23T02:50:06;94714.16;;;12.65;44.94
72395;BME280;60384;48.152;11.614;2024-03-23T02:53:12;94745.31;;;12.71;45.03
72395;BME280;60384;48.152;11.614;2024-03-23T02:56:22;94750.28;;;12.85;45.32
72395;BME280;60384;48.152;11.614;2024-03-23T02:59:25;94888.06;;;13.66;45.19
72395;BME280;60384;48.152;11.614;2024-03-23T03:02:40;94845.47;;;13.35;45.43
72395;BME280;60384;48.152;11.614;2024-03-23T03:06:03;94691.84;;;12.41;45.56
72395;BME280;60384;48.152;11.614;2024-03-23T03:09:22;94873.00;;;13.53;45.42
72395;BME280;60384;48.152;11.614;2024-03-23T03:12:51;94713.72;;;12.49;45.40
72395;BME280;60384;48.152;11.614;2024-03-23T03:16:17;94864.03;;;13.48;45.45
72395;BME280;60384;48.152;11.614;2024-03-23T03:19:59;94708.44;;;12.43;45.48
72395;BME280;60384;48.152;11.614;2024-03-23T03:23:30;94823.88;;;13.00;45.66
72395;BME280;60384;48.152;11.614;2024-03-23T03:27:33;94900.22;;;13.32;45.78
72395;BME280;60384;48.152;11.614;2024-03-23T03:30:47;94848.34;;;13.22;45.49
72395;BME280;60384;48.152;11.614;2024-03-23T03:34:02;94605.56;;;11.67;45.75
72395;BME280;60384;48.152;11.614;2024-03-23T03:37:40;94869.03;;;13.26;45.91
72395;BME280;60384;48.152;11.614;2024-03-23T03:41:05;94859.69;;;13.17;45.86
72395;BME280;60384;48.152;11.614;2024-03-23T03:44:24;94744.41;;;12.59;46.13
72395;BME280;60384;48.152;11.614;2024-03-23T03:47:59;94567.72;;;11.40;45.96
72395;BME280;60384;48.152;11.614;2024-03-23T03:51:33;94456.78;;;10.85;45.87
72395;BME280;60384;48.152;11.614;2024-03-23T03:54:49;94635.06;;;11.72;46.18
72395;BME280;60384;48.152;11.614;2024-03-23T03:58:28;94588.91;;;11.72;46.07
72395;BME280;60384;48.152;11.614;2024-03-23T04:01:47;94595.50;;;11.69;46.15
72395;BME280;60384;48.152;11.614;2024-03-23T04:05:11;94743.16;;;12.61;46.31
72395;BME280;60384;48.152;11.614;2024-03-23T04:08:44;94426.34;;;10.56;45.90
72395;BME280;60384;48.152;11.614;2024-03-23T04:12:00;94817.66;;;13.06;46.30
72395;BME280;60384;48.152;11.614;2024-03-23T04:19:02;94617.44;;;11.96;46.21
72395;BME280;60384;48.152;11.614;2024-03-23T04:23:02;94790.44;;;13.09;46.28
72395;BME280;60384;48.152;11.614;2024-03-23T04:26:15;94808.72;;;13.12;46.49
72395;BME280;60384;48.152;11.614;2024-03-23T04:30:19;94814.47;;;13.15;46.59
72395;BME280;60384;48.152;11.614;2024-03-23T04:33:34;94655.38;;;12.35;46.13
72395;BME280;60384;48.152;11.614;2024-03-23T04:36:38;94776.97;;;13.22;46.13
72395;BME280;60384;48.152;11.614;2024-03-23T04:39:43;94339.88;;;10.58;46.21
72395;BME280;60384;48.152;11.614;2024-03-23T04:42:45;94541.81;;;11.84;45.98
72395;BME280;60384;48.152;11.614;2024-03-23T04:45:54;94623.22;;;12.41;46.19
72395;BME280;60384;48.152;11.614;2024-03-23T04:48:57;94610.25;;;12.45;46.03
72395;BME280;60384;48.152;11.614;2024-03-23T04:52:01;94669.00;;;12.75;45.98
72395;BME280;60384;48.152;11.614;2024-03-23T04:55:06;94718.81;;;13.17;46.12
72395;BME280;60384;48.152;11.614;2024-03-23T04:58:09;94699.94;;;13.12;46.11
72395;BME280;60384;48.152;11.614;2024-03-23T05:01:11;94745.88;;;13.39;45.96
72395;BME280;60384;48.152;11.614;2024-03-23T05:04:28;94711.06;;;13.28;46.14
72395;BME280;60384;48.152;11.614;2024-03-23T05:07:55;94741.22;;;13.46;45.52
72395;BME280;60384;48.152;11.614;2024-03-23T05:14:50;94303.50;;;10.89;45.93
72395;BME280;60384;48.152;11.614;2024-03-23T05:18:02;94557.00;;;12.50;45.83
72395;BME280;60384;48.152;11.614;2024-03-23T05:21:08;94737.97;;;13.44;45.91
72395;BME280;60384;48.152;11.614;2024-03-23T05:24:37;94507.19;;;12.14;45.85
72395;BME280;60384;48.152;11.614;2024-03-23T05:27:49;94707.34;;;13.29;45.97
72395;BME280;60384;48.152;11.614;2024-03-23T05:31:28;94708.53;;;13.33;45.98
72395;BME280;60384;48.152;11.614;2024-03-23T05:34:46;94544.97;;;12.29;45.91
72395;BME280;60384;48.152;11.614;2024-03-23T05:38:05;94731.63;;;13.27;46.27
72395;BME280;60384;48.152;11.614;2024-03-23T05:41:26;94697.22;;;13.19;46.05
72395;BME280;60384;48.152;11.614;2024-03-23T05:44:49;94549.44;;;12.17;46.08
72395;BME280;60384;48.152;11.614;2024-03-23T05:48:14;94720.94;;;13.27;46.03
72395;BME280;60384;48.152;11.614;2024-03-23T05:51:31;94478.94;;;11.95;46.04
72395;BME280;60384;48.152;11.614;2024-03-23T05:54:47;94700.72;;;13.31;45.95
72395;BME280;60384;48.152;11.614;2024-03-23T05:58:11;94726.44;;;13.32;46.10
72395;BME280;60384;48.152;11.614;2024-03-23T06:01:44;94694.72;;;13.36;45.99
72395;BME280;60384;48.152;11.614;2024-03-23T06:05:28;94315.91;;;10.95;45.87
72395;BME280;60384;48.152;11.614;2024-03-23T06:09:31;94506.09;;;12.33;45.75
72395;BME280;60384;48.152;11.614;2024-03-23T06:12:42;94397.13;;;11.59;45.72
72395;BME280;60384;48.152;11.614;2024-03-23T06:15:58;94497.75;;;12.41;45.51
72395;BME280;60384;48.152;11.614;2024-03-23T06:19:14;94660.53;;;13.49;45.83
72395;BME280;60384;48.152;11.614;2024-03-23T06:22:27;94516.97;;;12.73;45.78
72395;BME280;60384;48.152;11.614;2024-03-23T06:25:57;94277.50;;;11.32;45.59
72395;BME280;60384;48.152;11.614;2024-03-23T06:33:32;94633.81;;;13.84;45.22
72395;BME280;60384;48.152;11.614;2024-03-23T06:36:50;94455.13;;;12.88;45.32
72395;BME280;60384;48.152;11.614;2024-03-23T06:40:14;94622.06;;;13.97;45.33
72395;BME280;60384;48.152;11.614;2024-03-23T06:43:34;94593.41;;;13.98;45.30
72395;BME280;60384;48.152;11.614;2024-03-23T06:46:38;94140.34;;;11.23;44.95
72395;BME280;60384;48.152;11.614;2024-03-23T06:49:42;94571.41;;;14.07;45.36
72395;BME280;60384;48.152;11.614;2024-03-23T06:52:46;94457.75;;;13.46;44.96
72395;BME280;60384;48.152;11.614;2024-03-23T06:55:50;94536.28;;;14.04;44.97
72395;BME280;60384;48.152;11.614;2024-03-23T06:58:59;94588.56;;;14.35;44.94
72395;BME280;60384;48.152;11.614;2024-03-23T07:02:01;94480.00;;;13.87;44.73
72395;BME280;60384;48.152;11.614;2024-03-23T07:05:09;94563.44;;;14.64;44.61
72395;BME280;60384;48.152;11.614;2024-03-23T07:08:38;94564.44;;;14.75;44.61
72395;BME280;60384;48.152;11.614;2024-03-23T07:11:48;94193.44;;;12.53;44.41
72395;BME280;60384;48.152;11.614;2024-03-23T07:15:21;94288.94;;;13.14;44.45
72395;BME280;60384;48.152;11.614;2024-03-23T07:21:26;94205.97;;;12.81;44.23
72395;BME280;60384;48.152;11.614;2024-03-23T07:22:29;94396.59;;;14.07;44.28
72395;BME280;60384;48.152;11.614;2024-03-23T07:26:12;94213.66;;;13.17;44.21
72395;BME280;60384;48.152;11.614;2024-03-23T07:30:07;94532.63;;;15.28;44.21
72395;BME280;60384;48.152;11.614;2024-03-23T07:33:51;94237.63;;;13.58;43.91
72395;BME280;60384;48.152;11.614;2024-03-23T07:45:11;94507.69;;;14.78;43.98
72395;BME280;60384;48.152;11.614;2024-03-23T07:48:33;94650.53;;;15.23;45.84
72395;BME280;60384;48.152;11.614;2024-03-23T07:51:44;94468.38;;;13.18;48.41
72395;BME280;60384;48.152;11.614;2024-03-23T07:58:18;94551.38;;;12.81;50.46
72395;BME280;60384;48.152;11.614;2024-03-23T08:01:24;94316.78;;;11.25;50.26
72395;BME280;60384;48.152;11.614;2024-03-23T08:04:27;94459.06;;;11.91;51.15
72395;BME280;60384;48.152;11.614;2024-03-23T08:07:32;94672.22;;;12.95;51.60
72395;BME280;60384;48.152;11.614;2024-03-23T08:10:36;94756.31;;;13.11;52.83
72395;BME280;60384;48.152;11.614;2024-03-23T08:13:40;94352.16;;;10.59;53.56
72395;BME280;60384;48.152;11.614;2024-03-23T08:16:46;94403.19;;;10.56;54.15
72395;BME280;60384;48.152;11.614;2024-03-23T08:19:54;94334.28;;;9.98;55.24
72395;BME280;60384;48.152;11.614;2024-03-23T08:23:17;94672.09;;;11.87;55.86
72395;BME280;60384;48.152;11.614;2024-03-23T08:26:25;94759.81;;;12.20;56.67
72395;BME280;60384;48.152;11.614;2024-03-23T08:29:31;94620.91;;;11.29;57.28
72395;BME280;60384;48.152;11.614;2024-03-23T08:32:33;94413.47;;;9.58;58.30
72395;BME280;60384;48.152;11.614;2024-03-23T08:35:42;94577.56;;;10.34;59.69
72395;BME280;60384;48.152;11.614;2024-03-23T08:38:59;94700.59;;;10.74;62.75
72395;BME280;60384;48.152;11.614;2024-03-23T08:42:22;94695.59;;;10.39;63.36
72395;BME280;60384;48.152;11.614;2024-03-23T08:46:28;94853.22;;;11.19;63.98
72395;BME280;60384;48.152;11.614;2024-03-23T08:55:01;94455.63;;;8.18;66.17
72395;BME280;60384;48.152;11.614;2024-03-23T08:58:19;94418.50;;;8.05;66.75
72395;BME280;60384;48.152;11.614;2024-03-23T09:01:22;94873.22;;;10.77;67.43
72395;BME280;60384;48.152;11.614;2024-03-23T09:04:25;94763.84;;;10.01;67.53
72395;BME280;60384;48.152;11.614;2024-03-23T09:07:26;94905.22;;;10.70;68.11
72395;BME280;60384;48.152;11.614;2024-03-23T09:10:31;94902.75;;;10.69;67.97
72395;BME280;60384;48.152;11.614;2024-03-23T09:13:33;94901.31;;;10.66;68.11
72395;BME280;60384;48.152;11.614;2024-03-23T09:16:38;94810.69;;;10.15;68.49
72395;BME280;60384;48.152;11.614;2024-03-23T09:19:39;94875.72;;;10.72;68.09
72395;BME280;60384;48.152;11.614;2024-03-23T09:22:41;94888.38;;;10.83;68.43
72395;BME280;60384;48.152;11.614;2024-03-23T09:29:05;94864.50;;;10.57;69.33
72395;BME280;60384;48.152;11.614;2024-03-23T09:32:07;94773.06;;;9.85;69.33
72395;BME280;60384;48.152;11.614;2024-03-23T09:35:11;94488.47;;;8.23;69.38
72395;BME280;60384;48.152;11.614;2024-03-23T09:38:27;94933.03;;;10.81;69.43
72395;BME280;60384;48.152;11.614;2024-03-23T09:41:33;94685.56;;;9.44;69.42
72395;BME280;60384;48.152;11.614;2024-03-23T09:44:37;94940.19;;;10.94;69.13
72395;BME280;60384;48.152;11.614;2024-03-23T09:47:41;94913.78;;;10.86;69.40
72395;BME280;60384;48.152;11.614;2024-03-23T09:50:46;94641.44;;;8.77;69.19
72395;BME280;60384;48.152;11.614;2024-03-23T09:53:52;94915.66;;;10.46;69.48
72395;BME280;60384;48.152;11.614;2024-03-23T09:57:14;94940.84;;;10.50;69.98
72395;BME280;60384;48.152;11.614;2024-03-23T10:00:56;94880.84;;;9.94;70.09
72395;BME280;60384;48.152;11.614;2024-03-23T10:04:10;94958.06;;;10.34;69.84
72395;BME280;60384;48.152;11.614;2024-03-23T10:07:27;94570.91;;;7.68;70.31
72395;BME280;60384;48.152;11.614;2024-03-23T10:10:30;94569.81;;;7.55;70.68
72395;BME280;60384;48.152;11.614;2024-03-23T10:13:44;94735.47;;;8.61;71.00
72395;BME280;60384;48.152;11.614;2024-03-23T10:17:31;94558.53;;;7.40;71.02
72395;BME280;60384;48.152;11.614;2024-03-23T10:20:50;94675.47;;;8.13;70.95
72395;BME280;60384;48.152;11.614;2024-03-23T10:23:55;94617.16;;;7.65;70.80
72395;BME280;60384;48.152;11.614;2024-03-23T10:27:00;94870.25;;;9.20;70.92
72395;BME280;60384;48.152;11.614;2024-03-23T10:30:13;94710.94;;;8.05;71.21
72395;BME280;60384;48.152;11.614;2024-03-23T10:33:29;94832.72;;;8.76;71.87
72395;BME280;60384;48.152;11.614;2024-03-23T10:36:47;94877.13;;;9.01;72.06
72395;BME280;60384;48.152;11.614;2024-03-23T10:40:22;94974.09;;;9.80;71.91
72395;BME280;60384;48.152;11.614;2024-03-23T10:44:01;94857.31;;;9.04;71.87
72395;BME280;60384;48.152;11.614;2024-03-23T10:55:52;94651.78;;;7.63;71.73
72395;BME280;60384;48.152;11.614;2024-03-23T10:58:57;94739.03;;;7.99;71.58
72395;BME280;60384;48.152;11.614;2024-03-23T11:02:03;95024.66;;;9.93;71.16
72395;BME280;60384;48.152;11.614;2024-03-23T11:05:27;95025.66;;;9.92;71.08
72395;BME280;60384;48.152;11.614;2024-03-23T11:08:42;94636.50;;;7.31;70.65
72395;BME280;60384;48.152;11.614;2024-03-23T11:11:50;94630.56;;;7.29;70.56
72395;BME280;60384;48.152;11.614;2024-03-23T11:15:01;95091.91;;;9.80;70.73
72395;BME280;60384;48.152;11.614;2024-03-23T11:18:08;95063.47;;;9.81;70.88
72395;BME280;60384;48.152;11.614;2024-03-23T11:21:10;95034.16;;;9.67;70.78
72395;BME280;60384;48.152;11.614;2024-03-23T11:24:18;95071.06;;;9.84;70.86
72395;BME280;60384;48.152;11.614;2024-03-23T11:27:39;94910.56;;;8.89;70.54
72395;BME280;60384;48.152;11.614;2024-03-23T11:31:16;94525.78;;;6.79;70.10
72395;BME280;60384;48.152;11.614;2024-03-23T11:34:45;94694.44;;;7.75;70.15
72395;BME280;60384;48.152;11.614;2024-03-23T11:38:09;95040.84;;;9.98;70.54
72395;BME280;60384;48.152;11.614;2024-03-23T11:41:17;94675.00;;;7.61;69.95
72395;BME280;60384;48.152;11.614;2024-03-23T11:44:34;95076.44;;;10.03;70.59
72395;BME280;60384;48.152;11.614;2024-03-23T11:47:48;94894.50;;;9.04;69.75
72395;BME280;60384;48.152;11.614;2024-03-23T11:51:04;94825.53;;;8.69;69.31
72395;BME280;60384;48.152;11.614;2024-03-23T11:54:30;95049.69;;;10.18;69.46
72395;BME280;60384;48.152;11.614;2024-03-23T11:57:46;94874.41;;;9.43;67.75
72395;BME280;60384;48.152;11.614;2024-03-23T12:01:09;94658.16;;;8.17;67.83
72395;BME280;60384;48.152;11.614;2024-03-23T12:04:30;94673.84;;;8.12;67.92
72395;BME280;60384;48.152;11.614;2024-03-23T12:07:33;94699.69;;;8.38;68.33
72395;BME280;60384;48.152;11.614;2024-03-23T12:10:49;94921.66;;;9.54;68.47
72395;BME280;60384;48.152;11.614;2024-03-23T12:14:06;94648.00;;;7.79;68.76
72395;BME280;60384;48.152;11.614;2024-03-23T12:21:19;94708.03;;;8.00;68.63
72395;BME280;60384;48.152;11.614;2024-03-23T12:24:38;95024.47;;;10.07;68.64
72395;BME280;60384;48.152;11.614;2024-03-23T12:28:04;94613.25;;;7.61;68.31
72395;BME280;60384;48.152;11.614;2024-03-23T12:31:17;94656.66;;;8.01;67.60
72395;BME280;60384;48.152;11.614;2024-03-23T12:34:31;95026.22;;;10.41;66.90
72395;BME280;60384;48.152;11.614;2024-03-23T12:37:48;94851.38;;;9.63;66.96
72395;BME280;60384;48.152;11.614;2024-03-23T12:40:50;94902.13;;;10.14;64.86
72395;BME280;60384;48.152;11.614;2024-03-23T12:43:55;94639.31;;;8.53;64.77
72395;BME280;60384;48.152;11.614;2024-03-23T12:46:59;94683.88;;;8.77;63.85
72395;BME280;60384;48.152;11.614;2024-03-23T12:50:02;94932.06;;;10.36;62.62
72395;BME280;60384;48.152;11.614;2024-03-23T12:53:05;95020.47;;;11.17;61.82
72395;BME280;60384;48.152;11.614;2024-03-23T12:56:11;94913.63;;;10.54;62.57
72395;BME280;60384;48.152;11.614;2024-03-23T12:59:12;95020.88;;;11.21;62.16
72395;BME280;60384;48.152;11.614;2024-03-23T13:02:28;95017.78;;;11.43;61.69
72395;BME280;60384;48.152;11.614;2024-03-23T13:05:31;95031.25;;;11.55;61.83
72395;BME280;60384;48.152;11.614;2024-03-23T13:08:34;94860.19;;;10.49;62.04
72395;BME280;60384;48.152;11.614;2024-03-23T13:11:45;94991.06;;;11.57;62.46
72395;BME280;60384;48.152;11.614;2024-03-23T13:14:48;94734.59;;;9.88;61.89
72395;BME280;60384;48.152;11.614;2024-03-23T13:17:52;94800.81;;;10.49;62.08
72395;BME280;60384;48.152;11.614;2024-03-23T13:21:04;94787.16;;;10.25;62.17
72395;BME280;60384;48.152;11.614;2024-03-23T13:24:11;94817.81;;;10.54;62.58
72395;BME280;60384;48.152;11.614;2024-03-23T13:27:22;94993.25;;;11.73;62.28
72395;BME280;60384;48.152;11.614;2024-03-23T13:30:33;94716.63;;;9.83;61.85
72395;BME280;60384;48.152;11.614;2024-03-23T13:37:37;94863.38;;;10.84;62.20
72395;BME280;60384;48.152;11.614;2024-03-23T13:40:59;94824.31;;;10.65;63.12
72395;BME280;60384;48.152;11.614;2024-03-23T13:47:28;94982.81;;;11.65;61.25
72395;BME280;60384;48.152;11.614;2024-03-23T13:50:36;94824.59;;;10.24;60.21
72395;BME280;60384;48.152;11.614;2024-03-23T13:53:43;94878.63;;;10.37;60.11
72395;BME280;60384;48.152;11.614;2024-03-23T13:56:51;95044.06;;;10.87;60.32
72395;BME280;60384;48.152;11.614;2024-03-23T13:59:55;95033.16;;;10.29;61.84
72395;BME280;60384;48.152;11.614;2024-03-23T14:03:05;95091.47;;;9.77;62.70
72395;BME280;60384;48.152;11.614;2024-03-23T14:06:10;95010.72;;;8.74;64.73
72395;BME280;60384;48.152;11.614;2024-03-23T14:09:23;95006.59;;;8.44;65.94
72395;BME280;60384;48.152;11.614;2024-03-23T14:12:37;94829.44;;;7.19;66.88
72395;BME280;60384;48.152;11.614;2024-03-23T14:15:55;95055.13;;;8.59;67.39
72395;BME280;60384;48.152;11.614;2024-03-23T14:19:10;94910.50;;;7.78;67.66
72395;BME280;60384;48.152;11.614;2024-03-23T14:22:21;94944.97;;;7.99;68.11
72395;BME280;60384;48.152;11.614;2024-03-23T14:25:34;95045.09;;;8.61;67.97
72395;BME280;60384;48.152;11.614;2024-03-23T14:28:58;95051.19;;;8.76;68.00
72395;BME280;60384;48.152;11.614;2024-03-23T14:32:15;94895.44;;;7.78;67.98
72395;BME280;60384;48.152;11.614;2024-03-23T14:35:16;94677.44;;;6.43;67.56
72395;BME280;60384;48.152;11.614;2024-03-23T14:38:21;94805.00;;;7.17;67.59
72395;BME280;60384;48.152;11.614;2024-03-23T14:41:25;95075.06;;;8.76;67.62
72395;BME280;60384;48.152;11.614;2024-03-23T14:44:40;94965.47;;;8.12;65.96
72395;BME280;60384;48.152;11.614;2024-03-23T14:47:55;94815.19;;;6.99;64.85
72395;BME280;60384;48.152;11.614;2024-03-23T14:50:56;94811.09;;;6.96;65.26
72395;BME280;60384;48.152;11.614;2024-03-23T14:54:01;94673.59;;;6.10;65.75
72395;BME280;60384;48.152;11.614;2024-03-23T14:57:07;94837.66;;;6.88;65.83
72395;BME280;60384;48.152;11.614;2024-03-23T15:00:15;95141.66;;;8.60;65.08
72395;BME280;60384;48.152;11.614;2024-03-23T15:03:23;95055.97;;;8.23;65.84
72395;BME280;60384;48.152;11.614;2024-03-23T15:06:27;94728.63;;;6.21;65.71
72395;BME280;60384;48.152;11.614;2024-03-23T15:09:35;95085.69;;;8.33;65.67
72395;BME280;60384;48.152;11.614;2024-03-23T15:12:37;94872.59;;;6.84;65.95
72395;BME280;60384;48.152;11.614;2024-03-23T15:15:54;94886.84;;;6.97;66.31
72395;BME280;60384;48.152;11.614;2024-03-23T15:19:01;94698.38;;;5.79;66.59
72395;BME280;60384;48.152;11.614;2024-03-23T15:22:03;94736.13;;;6.03;66.69
72395;BME280;60384;48.152;11.614;2024-03-23T15:25:07;94729.56;;;5.99;66.91
72395;BME280;60384;48.152;11.614;2024-03-23T15:28:16;94987.22;;;7.64;66.96
72395;BME280;60384;48.152;11.614;2024-03-23T15:31:26;94898.31;;;7.05;67.05
72395;BME280;60384;48.152;11.614;2024-03-23T15:34:59;95075.97;;;8.41;67.17
72395;BME280;60384;48.152;11.614;2024-03-23T15:38:07;94876.44;;;7.32;67.00
72395;BME280;60384;48.152;11.614;2024-03-23T15:41:35;94990.19;;;8.33;66.84
72395;BME280;60384;48.152;11.614;2024-03-23T15:45:00;95038.09;;;8.75;66.76
72395;BME280;60384;48.152;11.614;2024-03-23T15:48:25;95051.91;;;8.91;67.11
72395;BME280;60384;48.152;11.614;2024-03-23T15:51:38;94850.59;;;7.55;66.98
72395;BME280;60384;48.152;11.614;2024-03-23T15:54:45;94730.06;;;6.95;66.90
72395;BME280;60384;48.152;11.614;2024-03-23T15:58:16;95099.88;;;9.18;67.01
72395;BME280;60384;48.152;11.614;2024-03-23T16:01:25;94784.19;;;7.36;66.96
72395;BME280;60384;48.152;11.614;2024-03-23T16:04:38;95079.63;;;9.10;67.05
72395;BME280;60384;48.152;11.614;2024-03-23T16:07:42;94866.81;;;7.67;66.77
72395;BME280;60384;48.152;11.614;2024-03-23T16:10:47;94798.44;;;7.35;67.16
72395;BME280;60384;48.152;11.614;2024-03-23T16:14:23;94759.16;;;7.17;67.04
72395;BME280;60384;48.152;11.614;2024-03-23T16:17:32;95055.03;;;9.01;67.12
72395;BME280;60384;48.152;11.614;2024-03-23T16:21:04;95029.75;;;9.05;67.36
72395;BME280;60384;48.152;11.614;2024-03-23T16:24:09;95058.06;;;8.98;67.33
72395;BME280;60384;48.152;11.614;2024-03-23T16:27:16;95064.19;;;8.99;67.47
72395;BME280;60384;48.152;11.614;2024-03-23T16:30:20;94843.03;;;7.52;67.54
72395;BME280;60384;48.152;11.614;2024-03-23T16:33:39;95051.09;;;8.91;67.78
72395;BME280;60384;48.152;11.614;2024-03-23T16:36:44;95070.25;;;8.86;68.04
72395;BME280;60384;48.152;11.614;2024-03-23T16:39:55;94852.94;;;7.44;68.04
72395;BME280;60384;48.152;11.614;2024-03-23T16:43:09;94861.19;;;7.55;67.88
72395;BME280;60384;48.152;11.614;2024-03-23T16:46:17;95057.84;;;8.93;67.83
72395;BME280;60384;48.152;11.614;2024-03-23T16:49:21;94918.84;;;7.96;67.98
72395;BME280;60384;48.152;11.614;2024-03-23T16:52:23;94643.31;;;6.12;67.89
72395;BME280;60384;48.152;11.614;2024-03-23T16:55:26;95094.66;;;8.75;68.12
72395;BME280;60384;48.152;11.614;2024-03-23T16:58:31;94702.50;;;6.47;68.03
72395;BME280;60384;48.152;11.614;2024-03-23T17:01:37;94918.47;;;7.78;68.17
72395;BME280;60384;48.152;11.614;2024-03-23T17:04:39;94898.59;;;7.67;68.20
72395;BME280;60384;48.152;11.614;2024-03-23T17:07:50;95042.88;;;8.58;68.36
72395;BME280;60384;48.152;11.614;2024-03-23T17:11:08;95067.16;;;8.61;68.33
72395;BME280;60384;48.152;11.614;2024-03-23T17:14:12;94863.34;;;7.09;68.56
72395;BME280;60384;48.152;11.614;2024-03-23T17:17:16;94833.69;;;6.99;68.28
72395;BME280;60384;48.152;11.614;2024-03-23T17:20:24;95100.91;;;8.31;68.43
72395;BME280;60384;48.152;11.614;2024-03-23T17:23:31;94924.19;;;7.24;68.78
72395;BME280;60384;48.152;11.614;2024-03-23T17:26:35;94690.81;;;5.76;68.22
72395;BME280;60384;48.152;11.614;2024-03-23T17:29:41;95121.91;;;8.12;68.72
72395;BME280;60384;48.152;11.614;2024-03-23T17:33:10;95141.41;;;8.04;68.09
72395;BME280;60384;48.152;11.614;2024-03-23T17:36:27;94992.06;;;6.95;67.81
72395;BME280;60384;48.152;11.614;2024-03-23T17:39:36;95174.34;;;7.51;68.39
72395;BME280;60384;48.152;11.614;2024-03-23T17:42:43;95124.59;;;7.23;68.75
72395;BME280;60384;48.152;11.614;2024-03-23T17:46:02;94781.88;;;5.05;68.75
72395;BME280;60384;48.152;11.614;2024-03-23T17:49:10;94891.44;;;5.47;69.37
72395;BME280;60384;48.152;11.614;2024-03-23T17:52:13;95123.09;;;6.91;69.81
72395;BME280;60384;48.152;11.614;2024-03-23T17:55:21;95002.38;;;5.92;69.67
72395;BME280;60384;48.152;11.614;2024-03-23T17:58:22;94670.91;;;3.84;69.57
72395;BME280;60384;48.152;11.614;2024-03-23T18:01:31;95139.41;;;6.80;70.10
72395;BME280;60384;48.152;11.614;2024-03-23T18:04:37;94875.88;;;5.29;69.71
72395;BME280;60384;48.152;11.614;2024-03-23T18:07:38;94902.28;;;5.29;70.02
72395;BME280;60384;48.152;11.614;2024-03-23T18:10:47;94815.81;;;4.85;69.81
72395;BME280;60384;48.152;11.614;2024-03-23T18:13:55;94820.81;;;4.80;69.69
72395;BME280;60384;48.152;11.614;2024-03-23T18:17:02;95157.50;;;6.91;69.99
72395;BME280;60384;48.152;11.614;2024-03-23T18:20:12;95009.63;;;5.99;69.62
72395;BME280;60384;48.152;11.614;2024-03-23T18:23:34;95191.31;;;6.81;69.87
72395;BME280;60384;48.152;11.614;2024-03-23T18:26:49;94911.28;;;5.12;68.73
72395;BME280;60384;48.152;11.614;2024-03-23T18:30:29;95097.38;;;5.86;68.45
72395;BME280;60384;48.152;11.614;2024-03-23T18:33:37;94805.34;;;3.91;68.60
72395;BME280;60384;48.152;11.614;2024-03-23T18:36:45;94937.84;;;4.71;68.92
72395;BME280;60384;48.152;11.614;2024-03-23T18:39:58;95181.94;;;6.25;69.88
72395;BME280;60384;48.152;11.614;2024-03-23T18:43:05;94801.25;;;3.89;69.34
72395;BME280;60384;48.152;11.614;2024-03-23T18:46:18;95036.63;;;5.16;69.44
72395;BME280;60384;48.152;11.614;2024-03-23T18:49:24;95198.03;;;6.07;69.71
72395;BME280;60384;48.152;11.614;2024-03-23T18:52:26;95181.25;;;5.84;70.45
72395;BME280;60384;48.152;11.614;2024-03-23T18:55:27;95182.00;;;5.53;70.93
72395;BME280;60384;48.152;11.614;2024-03-23T18:58:31;95178.22;;;5.40;71.47
72395;BME280;60384;48.152;11.614;2024-03-23T19:01:32;95098.16;;;5.00;71.73
72395;BME280;60384;48.152;11.614;2024-03-23T19:04:35;95100.78;;;5.08;71.87
72395;BME280;60384;48.152;11.614;2024-03-23T19:07:37;95167.00;;;5.46;71.94
72395;BME280;60384;48.152;11.614;2024-03-23T19:10:41;95179.88;;;5.49;71.92
72395;BME280;60384;48.152;11.614;2024-03-23T19:13:45;95082.03;;;4.95;72.21